createdAt,value
2022-08-27T00:01:36.365Z,45.93
2022-08-27T00:03:39.267Z,45.62
2022-08-27T00:05:43.514Z,45.47
2022-08-27T00:07:47.906Z,45.15
2022-08-27T00:09:50.591Z,45.34
2022-08-27T00:11:53.276Z,45.12
2022-08-27T00:13:56.936Z,45.21
2022-08-27T00:15:59.633Z,44.87
2022-08-27T00:18:02.287Z,45.08
2022-08-27T00:20:06.492Z,45.18
2022-08-27T00:22:10.272Z,45.18
2022-08-27T00:24:13.344Z,45.34
2022-08-27T00:26:17.104Z,45.09
2022-08-27T00:28:20.003Z,45.04
2022-08-27T00:30:24.281Z,45.19
2022-08-27T00:32:27.137Z,45.19
2022-08-27T00:34:30.075Z,45.51
2022-08-27T00:36:32.727Z,45.38
2022-08-27T00:38:40.963Z,45.65
2022-08-27T00:40:44.986Z,45.85
2022-08-27T00:42:55.090Z,45.99
2022-08-27T00:44:59.948Z,46.23
2022-08-27T00:47:25.316Z,46.62
2022-08-27T00:50:21.027Z,46.92
2022-08-27T00:52:28.540Z,46.98
2022-08-27T00:54:31.533Z,47.02
2022-08-27T00:56:40.857Z,47.43
2022-08-27T00:58:47.908Z,47.43
2022-08-27T01:00:50.937Z,47.52
2022-08-27T01:02:54.082Z,48.15
2022-08-27T01:05:01.554Z,48.43
2022-08-27T01:07:06.334Z,48.72
2022-08-27T01:09:14.678Z,49.58
2022-08-27T01:11:19.012Z,50.28
2022-08-27T01:13:58.823Z,50.98
2022-08-27T01:15:47.961Z,50.97
2022-08-27T01:17:51.879Z,51.68
2022-08-27T01:20:00.663Z,52.39
2022-08-27T01:22:19.921Z,53.04
2022-08-27T01:24:33.100Z,52.98
2022-08-27T01:26:36.948Z,53.09
2022-08-27T01:28:39.799Z,53.22
2022-08-27T01:30:44.059Z,52.98
2022-08-27T01:32:47.784Z,53.03
2022-08-27T01:34:51.590Z,53.52
2022-08-27T01:36:57.322Z,53.84
2022-08-27T01:39:00.375Z,54.07
2022-08-27T01:41:03.368Z,55.15
2022-08-27T01:43:06.330Z,55.08
2022-08-27T01:45:14.973Z,55.11
2022-08-27T01:47:20.634Z,55.30
2022-08-27T01:49:23.392Z,55.52
2022-08-27T01:51:26.218Z,55.61
2022-08-27T01:53:28.929Z,55.43
2022-08-27T01:55:31.653Z,54.94
2022-08-27T01:57:35.435Z,54.46
2022-08-27T01:59:39.755Z,54.45
2022-08-27T02:01:42.984Z,54.23
2022-08-27T02:03:47.634Z,54.23
2022-08-27T02:05:50.782Z,54.02
2022-08-27T02:07:54.488Z,54.19
2022-08-27T02:09:57.148Z,54.41
2022-08-27T02:12:01.021Z,54.46
2022-08-27T02:14:03.779Z,54.96
2022-08-27T02:16:16.590Z,55.17
2022-08-27T02:18:19.478Z,55.29
2022-08-27T02:20:23.111Z,54.79
2022-08-27T02:22:28.520Z,54.86
2022-08-27T02:24:31.224Z,55.35
2022-08-27T02:26:34.123Z,55.42
2022-08-27T02:28:37.171Z,55.62
2022-08-27T02:30:40.052Z,55.22
2022-08-27T02:32:42.791Z,54.72
2022-08-27T02:34:45.512Z,54.93
2022-08-27T02:36:48.418Z,55.67
2022-08-27T02:38:51.573Z,55.79
2022-08-27T02:40:54.289Z,55.28
2022-08-27T02:42:57.055Z,55.94
2022-08-27T02:44:59.770Z,56.46
2022-08-27T02:47:06.121Z,56.12
2022-08-27T02:49:09.774Z,56.29
2022-08-27T02:51:12.621Z,56.66
2022-08-27T02:53:15.530Z,57.12
2022-08-27T02:55:18.786Z,57.45
2022-08-27T02:57:22.622Z,57.61
2022-08-27T02:59:25.307Z,57.27
2022-08-27T03:01:28.696Z,57.95
2022-08-27T03:03:31.787Z,57.82
2022-08-27T03:05:34.566Z,57.77
2022-08-27T03:07:37.690Z,58.78
2022-08-27T03:09:40.824Z,58.91
2022-08-27T03:11:43.464Z,58.69
2022-08-27T03:13:46.210Z,58.40
2022-08-27T03:15:49.398Z,57.93
2022-08-27T03:18:12.054Z,58.26
2022-08-27T03:20:14.733Z,56.96
2022-08-27T03:22:17.369Z,57.70
2022-08-27T03:24:20.040Z,56.81
2022-08-27T03:26:24.707Z,56.86
2022-08-27T03:28:31.932Z,56.70
2022-08-27T03:30:34.720Z,56.05
2022-08-27T03:32:37.914Z,56.04
2022-08-27T03:34:40.568Z,56.20
2022-08-27T03:36:43.952Z,55.86
2022-08-27T03:38:49.824Z,55.15
2022-08-27T03:40:52.661Z,54.57
2022-08-27T03:42:55.831Z,54.62
2022-08-27T03:44:58.602Z,54.03
2022-08-27T03:47:01.396Z,53.62
2022-08-27T03:49:04.931Z,53.19
2022-08-27T03:51:10.249Z,52.95
2022-08-27T03:53:14.548Z,52.79
2022-08-27T03:55:17.227Z,52.82
2022-08-27T03:57:20.085Z,51.97
2022-08-27T03:59:22.752Z,52.27
2022-08-27T04:01:25.460Z,52.78
2022-08-27T04:03:28.664Z,53.11
2022-08-27T04:05:31.627Z,54.25
2022-08-27T04:07:34.289Z,53.38
2022-08-27T04:09:37.040Z,53.81
2022-08-27T04:11:39.683Z,54.07
2022-08-27T04:13:42.324Z,53.48
2022-08-27T04:15:50.041Z,54.00
2022-08-27T04:17:52.934Z,53.91
2022-08-27T04:19:55.632Z,54.27
2022-08-27T04:22:03.066Z,53.60
2022-08-27T04:24:06.023Z,53.53
2022-08-27T04:26:11.397Z,53.66
2022-08-27T04:28:15.610Z,53.10
2022-08-27T04:30:19.599Z,53.14
2022-08-27T04:32:23.593Z,53.08
2022-08-27T04:34:31.092Z,52.91
2022-08-27T04:36:33.817Z,52.68
2022-08-27T04:38:37.495Z,52.29
2022-08-27T04:40:58.758Z,52.81
2022-08-27T04:43:01.396Z,52.85
2022-08-27T04:45:04.880Z,52.97
2022-08-27T04:47:07.737Z,53.83
2022-08-27T04:49:13.668Z,54.28
2022-08-27T04:51:18.639Z,54.07
2022-08-27T04:53:21.522Z,53.75
2022-08-27T04:55:24.804Z,54.51
2022-08-27T04:57:28.104Z,54.31
2022-08-27T04:59:31.965Z,54.80
2022-08-27T05:01:36.999Z,55.65
2022-08-27T05:03:40.192Z,55.17
2022-08-27T05:05:44.799Z,55.32
2022-08-27T05:07:47.706Z,55.55
2022-08-27T05:09:56.185Z,55.48
2022-08-27T05:11:58.917Z,55.52
2022-08-27T05:14:06.700Z,56.58
2022-08-27T05:16:12.812Z,55.43
2022-08-27T05:18:15.691Z,55.31
2022-08-27T05:20:19.690Z,55.35
2022-08-27T05:22:22.334Z,54.26
2022-08-27T05:24:26.343Z,53.59
2022-08-27T05:26:29.927Z,53.78
2022-08-27T05:28:32.671Z,53.44
2022-08-27T05:30:44.480Z,53.43
2022-08-27T05:32:52.252Z,52.77
2022-08-27T05:34:54.908Z,50.84
2022-08-27T05:36:57.645Z,51.01
2022-08-27T05:39:02.184Z,52.57
2022-08-27T05:41:09.257Z,53.22
2022-08-27T05:43:15.989Z,52.01
2022-08-27T05:45:19.655Z,52.26
2022-08-27T05:47:23.198Z,50.78
2022-08-27T05:49:26.404Z,51.26
2022-08-27T05:51:32.818Z,50.52
2022-08-27T05:53:36.544Z,50.40
2022-08-27T05:55:45.904Z,49.81
2022-08-27T05:57:48.715Z,50.84
2022-08-27T06:00:10.101Z,50.55
2022-08-27T06:02:19.776Z,49.42
2022-08-27T06:04:24.728Z,48.85
2022-08-27T06:06:27.551Z,49.10
2022-08-27T06:08:30.607Z,48.36
2022-08-27T06:10:33.727Z,48.15
2022-08-27T06:12:36.486Z,49.47
2022-08-27T06:14:39.378Z,48.35
2022-08-27T06:16:42.837Z,48.87
2022-08-27T06:18:48.071Z,49.19
2022-08-27T06:20:50.728Z,49.02
2022-08-27T06:22:53.581Z,48.52
2022-08-27T06:24:56.314Z,48.27
2022-08-27T06:26:59.704Z,48.51
2022-08-27T06:29:07.617Z,48.87
2022-08-27T06:31:13.970Z,47.29
2022-08-27T06:33:16.959Z,44.80
2022-08-27T06:35:19.599Z,44.98
2022-08-27T06:37:22.274Z,45.13
2022-08-27T06:39:24.978Z,44.53
2022-08-27T06:41:29.203Z,43.87
2022-08-27T06:43:32.403Z,44.84
2022-08-27T06:45:38.920Z,43.21
2022-08-27T06:47:41.921Z,43.48
2022-08-27T06:49:46.553Z,43.35
2022-08-27T06:51:49.365Z,43.17
2022-08-27T06:53:53.394Z,43.59
2022-08-27T06:55:56.093Z,43.31
2022-08-27T06:57:58.837Z,42.85
2022-08-27T07:00:01.893Z,43.27
2022-08-27T07:02:07.546Z,42.87
2022-08-27T07:04:14.323Z,43.24
2022-08-27T07:06:18.332Z,42.88
2022-08-27T07:08:21.031Z,42.71
2022-08-27T07:10:24.853Z,42.73
2022-08-27T07:12:30.349Z,42.20
2022-08-27T07:14:37.992Z,43.47
2022-08-27T07:16:41.395Z,43.47
2022-08-27T07:18:44.220Z,42.49
2022-08-27T07:20:48.256Z,42.07
2022-08-27T07:22:54.481Z,41.63
2022-08-27T07:24:57.166Z,41.05
2022-08-27T07:27:00.055Z,40.93
2022-08-27T07:29:07.707Z,41.22
2022-08-27T07:31:12.937Z,41.48
2022-08-27T07:33:15.906Z,41.49
2022-08-27T07:35:19.050Z,41.62
2022-08-27T07:37:22.450Z,41.51
2022-08-27T07:39:26.403Z,41.70
2022-08-27T07:41:33.324Z,41.07
2022-08-27T07:43:56.085Z,41.85
2022-08-27T07:46:02.124Z,41.00
2022-08-27T07:48:04.968Z,42.67
2022-08-27T07:50:08.133Z,41.79
2022-08-27T07:52:12.007Z,41.91
2022-08-27T07:54:16.395Z,41.63
2022-08-27T07:56:19.872Z,41.92
2022-08-27T07:58:24.307Z,40.22
2022-08-27T08:00:28.961Z,40.73
2022-08-27T08:02:31.852Z,39.61
2022-08-27T08:04:34.755Z,39.59
2022-08-27T08:06:39.592Z,38.76
2022-08-27T08:08:44.020Z,39.94
2022-08-27T08:10:49.131Z,39.20
2022-08-27T08:12:51.994Z,38.26
2022-08-27T08:14:58.124Z,38.19
2022-08-27T08:17:02.931Z,39.52
2022-08-27T08:19:09.604Z,37.97
2022-08-27T08:21:14.459Z,39.19
2022-08-27T08:23:17.331Z,38.14
2022-08-27T08:25:20.092Z,37.52
2022-08-27T08:27:23.064Z,37.90
2022-08-27T08:29:25.823Z,37.11
2022-08-27T08:31:29.891Z,37.54
2022-08-27T08:33:34.030Z,38.17
2022-08-27T08:35:41.566Z,36.95
2022-08-27T08:37:44.982Z,35.62
2022-08-27T08:39:47.899Z,36.13
2022-08-27T08:42:01.949Z,36.75
2022-08-27T08:44:17.023Z,36.38
2022-08-27T08:46:34.487Z,36.08
2022-08-27T08:48:43.771Z,35.22
2022-08-27T08:50:59.462Z,36.19
2022-08-27T08:53:08.636Z,35.81
2022-08-27T08:55:32.683Z,35.34
2022-08-27T08:57:48.943Z,34.66
2022-08-27T09:00:02.059Z,35.58
2022-08-27T09:02:13.581Z,35.38
2022-08-27T09:04:16.779Z,34.67
2022-08-27T09:06:43.797Z,36.06
2022-08-27T09:08:48.568Z,35.92
2022-08-27T09:11:08.466Z,33.82
2022-08-27T09:13:33.710Z,34.17
2022-08-27T09:15:37.325Z,33.91
2022-08-27T09:17:42.891Z,32.18
2022-08-27T09:19:47.085Z,31.75
2022-08-27T09:22:16.184Z,33.04
2022-08-27T09:24:27.547Z,33.82
2022-08-27T09:26:34.482Z,33.35
2022-08-27T09:29:00.070Z,33.09
2022-08-27T09:31:09.234Z,34.40
2022-08-27T09:33:11.932Z,31.99
2022-08-27T09:35:16.878Z,31.48
2022-08-27T09:37:34.424Z,30.98
2022-08-27T09:39:56.932Z,33.05
2022-08-27T09:42:00.004Z,32.96
2022-08-27T09:44:09.500Z,33.37
2022-08-27T09:46:30.454Z,33.38
2022-08-27T09:48:37.584Z,32.99
2022-08-27T09:50:46.125Z,32.73
2022-08-27T09:52:55.808Z,32.74
2022-08-27T09:54:59.953Z,33.47
2022-08-27T09:57:08.602Z,32.41
2022-08-27T09:59:23.513Z,32.41
2022-08-27T10:01:29.727Z,32.41
2022-08-27T10:03:33.653Z,32.03
2022-08-27T10:05:47.414Z,31.33
2022-08-27T10:07:57.149Z,31.51
2022-08-27T10:10:49.583Z,30.68
2022-08-27T10:13:22.091Z,32.79
2022-08-27T10:15:30.567Z,31.80
2022-08-27T10:17:50.295Z,32.75
2022-08-27T10:19:59.732Z,32.48
2022-08-27T10:22:32.085Z,31.88
2022-08-27T10:25:18.265Z,31.37
2022-08-27T10:27:40.387Z,29.83
2022-08-27T10:29:59.342Z,32.28
2022-08-27T10:32:31.416Z,31.65
2022-08-27T10:34:51.810Z,31.48
2022-08-27T10:37:04.316Z,30.63
2022-08-27T10:39:37.171Z,30.33
2022-08-27T10:41:46.033Z,30.39
2022-08-27T10:44:25.883Z,30.39
2022-08-27T10:46:55.473Z,31.08
2022-08-27T10:49:20.909Z,29.11
2022-08-27T10:51:32.640Z,30.38
2022-08-27T10:53:37.996Z,29.83
2022-08-27T10:55:51.981Z,30.51
2022-08-27T10:58:24.962Z,30.02
2022-08-27T11:00:38.182Z,30.17
2022-08-27T11:02:45.109Z,29.98
2022-08-27T11:04:53.721Z,29.95
2022-08-27T11:07:12.150Z,29.40
2022-08-27T11:09:38.652Z,29.03
2022-08-27T11:14:35.678Z,30.02
2022-08-27T11:16:47.337Z,29.64
2022-08-27T11:18:56.609Z,28.63
2022-08-27T11:21:05.277Z,28.47
2022-08-27T11:23:17.592Z,29.00
2022-08-27T11:25:22.989Z,29.33
2022-08-27T11:27:30.458Z,28.66
2022-08-27T11:30:00.404Z,27.96
2022-08-27T11:32:10.755Z,28.43
2022-08-27T11:34:22.093Z,27.85
2022-08-27T11:36:43.335Z,28.67
2022-08-27T11:39:14.013Z,27.48
2022-08-27T11:41:48.192Z,27.41
2022-08-27T11:43:53.202Z,26.81
2022-08-27T11:46:03.770Z,27.36
2022-08-27T11:48:26.047Z,26.86
2022-08-27T11:50:31.400Z,25.76
2022-08-27T11:52:40.832Z,26.72
2022-08-27T11:54:51.426Z,25.89
2022-08-27T11:56:53.910Z,25.62
2022-08-27T11:59:08.412Z,25.54
2022-08-27T12:01:28.680Z,24.93
2022-08-27T12:03:35.409Z,24.60
2022-08-27T12:05:53.906Z,25.43
2022-08-27T12:07:57.812Z,25.86
2022-08-27T12:10:00.338Z,25.44
2022-08-27T12:12:20.198Z,25.22
2022-08-27T12:14:41.647Z,24.84
2022-08-27T12:16:49.839Z,25.71
2022-08-27T12:18:57.999Z,26.08
2022-08-27T12:21:18.991Z,25.67
2022-08-27T12:23:40.298Z,25.85
2022-08-27T12:26:15.772Z,25.52
2022-08-27T12:28:26.688Z,25.99
2022-08-27T12:30:35.852Z,24.06
2022-08-27T12:32:45.172Z,24.56
2022-08-27T12:34:57.779Z,24.88
2022-08-27T12:37:07.433Z,24.66
2022-08-27T12:39:17.441Z,23.49
2022-08-27T12:41:29.447Z,23.45
2022-08-27T12:43:33.925Z,25.03
2022-08-27T12:45:46.125Z,24.64
2022-08-27T12:47:50.957Z,24.32
2022-08-27T12:50:00.710Z,23.38
2022-08-27T12:52:15.793Z,24.16
2022-08-27T12:54:38.686Z,23.04
2022-08-27T12:57:07.632Z,24.71
2022-08-27T12:59:36.014Z,23.83
2022-08-27T13:01:54.908Z,21.06
2022-08-27T13:04:01.197Z,21.01
2022-08-27T13:06:17.286Z,20.13
2022-08-27T13:08:23.838Z,21.13
2022-08-27T13:10:31.267Z,20.61
2022-08-27T13:12:34.003Z,21.44
2022-08-27T13:14:41.134Z,20.86
2022-08-27T13:16:57.837Z,20.86
2022-08-27T13:19:00.764Z,21.54
2022-08-27T13:21:12.570Z,20.92
2022-08-27T13:23:22.701Z,20.60
2022-08-27T13:25:31.033Z,22.02
2022-08-27T13:27:37.616Z,21.39
2022-08-27T13:29:42.566Z,21.03
2022-08-27T13:31:46.047Z,21.66
2022-08-27T13:33:49.177Z,20.88
2022-08-27T13:35:52.086Z,21.44
2022-08-27T13:37:56.001Z,21.67
2022-08-27T13:39:58.990Z,20.75
2022-08-27T13:42:04.550Z,21.41
2022-08-27T13:44:19.024Z,21.71
2022-08-27T13:46:31.541Z,21.82
2022-08-27T13:48:34.357Z,20.59
2022-08-27T13:50:37.472Z,20.87
2022-08-27T13:53:01.881Z,20.71
2022-08-27T13:55:15.251Z,20.34
2022-08-27T13:57:39.914Z,21.18
2022-08-27T13:59:42.861Z,21.23
2022-08-27T14:02:03.621Z,22.45
2022-08-27T14:04:08.392Z,22.26
2022-08-27T14:06:23.962Z,22.00
2022-08-27T14:08:36.369Z,21.92
2022-08-27T14:10:41.081Z,22.90
2022-08-27T14:12:45.329Z,22.85
2022-08-27T14:14:54.547Z,22.97
2022-08-27T14:17:08.992Z,22.80
2022-08-27T14:19:28.642Z,22.99
2022-08-27T14:21:39.726Z,22.45
2022-08-27T14:23:42.408Z,22.26
2022-08-27T14:25:46.388Z,23.52
2022-08-27T14:27:53.087Z,23.47
2022-08-27T14:29:57.334Z,23.71
2022-08-27T14:32:00.816Z,23.82
2022-08-27T14:34:03.462Z,24.18
2022-08-27T14:36:07.525Z,23.93
2022-08-27T14:38:22.936Z,24.53
2022-08-27T14:40:25.691Z,24.52
2022-08-27T14:42:28.998Z,24.67
2022-08-27T14:44:31.933Z,25.12
2022-08-27T14:46:41.543Z,25.75
2022-08-27T14:48:46.291Z,26.00
2022-08-27T14:50:54.518Z,26.57
2022-08-27T14:52:57.093Z,26.03
2022-08-27T14:54:59.730Z,25.72
2022-08-27T14:57:04.220Z,25.19
2022-08-27T14:59:07.302Z,25.30
2022-08-27T15:01:10.340Z,24.84
2022-08-27T15:03:13.112Z,23.86
2022-08-27T15:05:17.819Z,23.99
2022-08-27T15:07:20.639Z,23.05
2022-08-27T15:09:26.321Z,24.73
2022-08-27T15:11:32.520Z,25.45
2022-08-27T15:13:35.122Z,25.55
2022-08-27T15:15:41.634Z,25.54
2022-08-27T15:17:44.303Z,27.43
2022-08-27T15:19:47.180Z,25.93
2022-08-27T15:21:53.194Z,24.63
2022-08-27T15:24:00.338Z,26.62
2022-08-27T15:26:03.122Z,25.87
2022-08-27T15:28:07.082Z,26.47
2022-08-27T15:30:12.729Z,26.99
2022-08-27T15:32:35.035Z,27.01
2022-08-27T15:34:37.663Z,27.71
2022-08-27T15:36:41.054Z,26.51
2022-08-27T15:38:43.681Z,27.02
2022-08-27T15:40:46.700Z,28.25
2022-08-27T15:42:55.456Z,28.99
2022-08-27T15:44:58.281Z,28.85
2022-08-27T15:47:00.941Z,28.68
2022-08-27T15:49:04.405Z,28.27
2022-08-27T15:51:10.795Z,28.62
2022-08-27T15:53:13.503Z,28.90
2022-08-27T15:55:33.881Z,28.62
2022-08-27T15:57:36.483Z,29.03
2022-08-27T15:59:40.351Z,29.09
2022-08-27T16:01:43.751Z,28.90
2022-08-27T16:03:47.009Z,30.64
2022-08-27T16:05:49.680Z,30.96
2022-08-27T16:07:52.281Z,31.41
2022-08-27T16:09:55.117Z,32.15
2022-08-27T16:11:58.649Z,31.35
2022-08-27T16:14:01.607Z,30.67
2022-08-27T16:16:06.174Z,31.05
2022-08-27T16:18:10.150Z,33.05
2022-08-27T16:20:15.433Z,31.72
2022-08-27T16:22:18.501Z,31.24
2022-08-27T16:24:21.881Z,29.78
2022-08-27T16:26:24.547Z,30.47
2022-08-27T16:28:27.387Z,30.02
2022-08-27T16:30:30.426Z,32.14
2022-08-27T16:32:33.104Z,31.96
2022-08-27T16:34:35.752Z,32.66
2022-08-27T16:36:38.315Z,33.79
2022-08-27T16:38:41.015Z,32.61
2022-08-27T16:40:47.912Z,32.50
2022-08-27T16:42:52.116Z,33.25
2022-08-27T16:44:56.890Z,34.10
2022-08-27T16:46:59.465Z,33.87
2022-08-27T16:49:20.793Z,33.87
2022-08-27T16:51:29.598Z,33.64
2022-08-27T16:53:41.367Z,33.82
2022-08-27T16:55:46.146Z,33.54
2022-08-27T16:57:48.669Z,33.77
2022-08-27T16:59:51.429Z,32.86
2022-08-27T17:01:54.677Z,33.04
2022-08-27T17:04:14.830Z,33.77
2022-08-27T17:06:25.680Z,32.81
2022-08-27T17:08:30.442Z,32.51
2022-08-27T17:10:40.802Z,34.14
2022-08-27T17:12:47.304Z,32.60
2022-08-27T17:14:51.294Z,33.52
2022-08-27T17:16:54.779Z,32.85
2022-08-27T17:19:00.917Z,33.30
2022-08-27T17:21:04.897Z,33.76
2022-08-27T17:23:15.564Z,33.56
2022-08-27T17:25:18.281Z,33.50
2022-08-27T17:27:20.883Z,33.44
2022-08-27T17:29:23.929Z,35.16
2022-08-27T17:31:37.357Z,33.40
2022-08-27T17:33:51.494Z,33.90
2022-08-27T17:35:54.086Z,33.80
2022-08-27T17:37:56.684Z,33.58
2022-08-27T17:39:59.332Z,33.51
2022-08-27T17:42:01.963Z,33.92
2022-08-27T17:44:19.739Z,34.60
2022-08-27T17:46:22.285Z,35.10
2022-08-27T17:48:26.705Z,34.37
2022-08-27T17:50:29.643Z,35.54
2022-08-27T17:52:34.098Z,34.93
2022-08-27T17:54:45.933Z,34.60
2022-08-27T17:56:51.642Z,34.62
2022-08-27T17:58:54.658Z,35.02
2022-08-27T18:00:57.402Z,34.48
2022-08-27T18:03:00.635Z,34.69
2022-08-27T18:05:04.738Z,35.88
2022-08-27T18:07:07.566Z,35.01
2022-08-27T18:09:10.593Z,35.28
2022-08-27T18:11:13.739Z,36.07
2022-08-27T18:13:17.905Z,35.67
2022-08-27T18:15:29.097Z,35.59
2022-08-27T18:17:34.303Z,35.87
2022-08-27T18:19:45.415Z,36.14
2022-08-27T18:21:48.336Z,35.74
2022-08-27T18:23:51.699Z,35.68
2022-08-27T18:25:55.632Z,36.62
2022-08-27T18:28:01.438Z,37.07
2022-08-27T18:30:06.462Z,38.04
2022-08-27T18:32:09.039Z,37.25
2022-08-27T18:34:11.718Z,37.82
2022-08-27T18:36:15.483Z,37.15
2022-08-27T18:38:18.658Z,36.75
2022-08-27T18:40:24.176Z,36.21
2022-08-27T18:42:38.146Z,36.31
2022-08-27T18:44:43.226Z,36.66
2022-08-27T18:46:46.137Z,35.94
2022-08-27T18:48:48.723Z,36.28
2022-08-27T18:50:58.884Z,36.31
2022-08-27T18:53:02.955Z,35.83
2022-08-27T18:55:08.508Z,36.39
2022-08-27T18:57:12.971Z,35.98
2022-08-27T18:59:16.298Z,36.01
2022-08-27T19:01:24.790Z,36.03
2022-08-27T19:03:33.769Z,36.06
2022-08-27T19:05:36.481Z,36.97
2022-08-27T19:07:39.521Z,36.38
2022-08-27T19:09:43.008Z,36.47
2022-08-27T19:11:45.754Z,36.33
2022-08-27T19:13:50.634Z,36.63
2022-08-27T19:16:06.684Z,36.84
2022-08-27T19:18:09.746Z,36.75
2022-08-27T19:20:12.910Z,37.09
2022-08-27T19:22:15.770Z,37.11
2022-08-27T19:24:19.351Z,36.66
2022-08-27T19:26:25.494Z,37.02
2022-08-27T19:28:37.523Z,36.80
2022-08-27T19:30:40.231Z,37.12
2022-08-27T19:32:43.144Z,37.59
2022-08-27T19:34:45.959Z,37.23
2022-08-27T19:36:48.573Z,38.29
2022-08-27T19:38:53.024Z,38.79
2022-08-27T19:40:55.806Z,39.52
2022-08-27T19:42:58.553Z,39.25
2022-08-27T19:45:01.245Z,40.39
2022-08-27T19:47:07.681Z,38.92
2022-08-27T19:49:10.373Z,39.41
2022-08-27T19:51:13.577Z,39.08
2022-08-27T19:53:16.345Z,38.56
2022-08-27T19:55:19.731Z,38.17
2022-08-27T19:57:22.420Z,38.42
2022-08-27T19:59:25.344Z,39.11
2022-08-27T20:01:27.940Z,39.60
2022-08-27T20:03:30.683Z,40.02
2022-08-27T20:05:33.479Z,39.63
2022-08-27T20:07:36.086Z,38.36
2022-08-27T20:09:38.727Z,37.66
2022-08-27T20:11:43.460Z,36.98
2022-08-27T20:13:50.495Z,36.38
2022-08-27T20:15:53.468Z,36.64
2022-08-27T20:17:56.116Z,36.61
2022-08-27T20:19:59.090Z,36.50
2022-08-27T20:22:02.576Z,37.01
2022-08-27T20:24:05.853Z,37.64
2022-08-27T20:26:08.656Z,37.16
2022-08-27T20:28:35.435Z,37.23
2022-08-27T20:30:34.966Z,37.72
2022-08-27T20:32:37.974Z,37.82
2022-08-27T20:34:40.752Z,37.71
2022-08-27T20:36:43.554Z,37.72
2022-08-27T20:38:46.266Z,37.54
2022-08-27T20:40:49.435Z,37.66
2022-08-27T20:42:52.373Z,37.89
2022-08-27T20:44:54.904Z,37.68
2022-08-27T20:47:01.156Z,37.65
2022-08-27T20:49:04.591Z,37.77
2022-08-27T20:51:07.466Z,37.83
2022-08-27T20:53:10.036Z,37.98
2022-08-27T20:55:14.354Z,37.99
2022-08-27T20:57:17.089Z,38.26
2022-08-27T20:59:38.455Z,38.10
2022-08-27T21:01:41.099Z,38.07
2022-08-27T21:03:43.817Z,38.23
2022-08-27T21:05:48.782Z,38.16
2022-08-27T21:07:53.125Z,38.17
2022-08-27T21:09:57.543Z,38.27
2022-08-27T21:12:00.371Z,38.59
2022-08-27T21:14:03.026Z,39.30
2022-08-27T21:16:06.212Z,38.97
2022-08-27T21:18:08.844Z,39.54
2022-08-27T21:20:13.094Z,39.85
2022-08-27T21:22:15.825Z,40.02
2022-08-27T21:24:18.955Z,39.56
2022-08-27T21:26:23.075Z,39.25
2022-08-27T21:28:25.833Z,40.13
2022-08-27T21:30:28.473Z,39.70
2022-08-27T21:32:31.062Z,39.76
2022-08-27T21:34:33.702Z,39.86
2022-08-27T21:36:36.921Z,39.75
2022-08-27T21:38:39.962Z,39.29
2022-08-27T21:40:42.721Z,40.00
2022-08-27T21:42:45.388Z,40.71
2022-08-27T21:44:47.975Z,40.59
2022-08-27T21:46:50.550Z,40.70
2022-08-27T21:48:58.662Z,40.39
2022-08-27T21:51:11.159Z,40.34
2022-08-27T21:53:13.869Z,40.59
2022-08-27T21:55:16.932Z,40.50
2022-08-27T21:57:19.878Z,40.54
2022-08-27T21:59:22.648Z,40.61
2022-08-27T22:01:25.284Z,40.68
2022-08-27T22:03:27.849Z,40.93
2022-08-27T22:05:30.391Z,40.98
2022-08-27T22:07:33.031Z,40.99
2022-08-27T22:09:35.819Z,40.96
2022-08-27T22:11:38.403Z,41.32
2022-08-27T22:13:41.152Z,41.19
2022-08-27T22:15:44.169Z,41.28
2022-08-27T22:17:51.131Z,41.34
2022-08-27T22:19:54.038Z,41.90
2022-08-27T22:21:56.918Z,41.50
2022-08-27T22:23:59.751Z,41.60
2022-08-27T22:26:03.521Z,41.65
2022-08-27T22:28:06.421Z,41.63
2022-08-27T22:30:11.419Z,41.50
2022-08-27T22:32:14.102Z,41.68
2022-08-27T22:34:17.175Z,41.73
2022-08-27T22:36:20.408Z,41.64
2022-08-27T22:38:23.028Z,41.69
2022-08-27T22:40:29.303Z,42.39
2022-08-27T22:42:33.079Z,42.06
2022-08-27T22:44:38.647Z,42.13
2022-08-27T22:46:41.363Z,41.82
2022-08-27T22:48:44.079Z,42.00
2022-08-27T22:50:46.878Z,43.09
2022-08-27T22:52:49.880Z,42.72
2022-08-27T22:54:54.822Z,42.81
2022-08-27T22:56:57.613Z,42.61
2022-08-27T22:59:00.356Z,42.79
2022-08-27T23:01:03.114Z,43.31
2022-08-27T23:03:09.235Z,43.60
2022-08-27T23:05:13.554Z,43.74
2022-08-27T23:07:16.202Z,43.82
2022-08-27T23:09:19.014Z,43.79
2022-08-27T23:11:21.633Z,43.77
2022-08-27T23:13:24.518Z,43.69
2022-08-27T23:15:29.429Z,43.91
2022-08-27T23:17:31.983Z,43.80
2022-08-27T23:19:34.562Z,43.91
2022-08-27T23:21:37.388Z,44.00
2022-08-27T23:23:39.991Z,44.29
2022-08-27T23:26:01.442Z,44.14
2022-08-27T23:28:06.530Z,44.36
2022-08-27T23:30:10.808Z,44.61
2022-08-27T23:32:14.408Z,44.99
2022-08-27T23:34:18.161Z,45.45
2022-08-27T23:36:21.850Z,45.30
2022-08-27T23:38:24.568Z,45.50
2022-08-27T23:40:27.429Z,46.48
2022-08-27T23:42:30.138Z,47.07
2022-08-27T23:44:32.713Z,46.90
2022-08-27T23:46:35.310Z,46.93
2022-08-27T23:48:39.514Z,47.49
2022-08-27T23:50:42.623Z,47.83
2022-08-27T23:52:45.310Z,47.87
2022-08-27T23:54:47.938Z,48.10
2022-08-27T23:56:50.557Z,48.27
2022-08-27T23:58:53.183Z,48.10
